Hat Yai International Airport
VTSS : now visible

Airfield :











YOU CAN JOIN US ON...

 
LOGIN :

Register | Disclaimer

   EN    FR    IT 

 









Legend :    VFR   Marginal VFR   IFR   Intensive IFR   Very Intensive IFR
Visi :
Ceiling :
>= 8 km
>= 3000ft
5 to 8 km
1000 to 3000 ft
1500m to 5 km
500 to 1000 ft
800 to 1500m
200 to 500 ft
< 800m
< 200 ft
Symbols :   Thunderstorms  Fog  Heavy snow  Heavy precipitations  Wind > 20 kt






- Airport Elevation : 90 ft
- IATA code : HDY


VTSS - Hat Yai International

CURRENT METAR :
  • 180230Z VRB02KT 9999 FEW020 28/26 Q1013 NOSIG

EXPIRED METARs :
  • 180200Z 00000KT 9999 FEW020 28/27 Q1013 NOSIG
  • 180130Z 23002KT 9000 FEW005 26/26 Q1013 NOSIG
  • 180100Z 00000KT 5000 BR SCT004 25/25 Q1012 NOSIG
  • 180030Z 00000KT 0350 R26///// FG BKN002 24/24 Q1012 BECMG TL0110 1500 BR
  • 180000Z 00000KT 0300 R26///// FG VV002 24/24 Q1012 BECMG TL0045 1500 BR

TAF TAF VTSS
Valid from the 18 at 00:00 until the 19 at 00:00 UTC


172300Z 1800/1824 24008KT 0800 FG BKN005
BECMG 1800/1802 9999 NSW FEW020
TEMPO 1806/1812 VRB10G20KT 3000 TSRA FEW016CB SCT018 BKN100
VTBB FIR / Asia



MET'MAP, your aeronautical weather chart ! - Copyright ORBIFLY December 2007 - Disclaimer

ORBIFLY MET'MAP TEAM :

Programming & Development : Alexandra Zaïnal
Concept & original design : Baudouin d'Aumeries
Assistance for programming : Marc-Olivier Méhu
Technical & hardware support : Manuel Goepfert

Contact : metmap@orbifly.com




SOURCES & CREDITS :

   NOAA       Earth
Advisory